This is the latest recevied weather packets stored in our database for station/object VK2BLR. If no packets are shown the sender has not sent any weather packets the latest 10 day(s).
| Time | Temp. | Humidity | Pressure | Rain* | Wind** | Luminosity | Snow |
|---|---|---|---|---|---|---|---|
| 1787718092 | 16.11° C | 77% | 1020.3 hPa | 0 mm | - | - | - |
| 1787717191 | 15.56° C | 79% | 1020.3 hPa | 0 mm | - | - | - |
| 1787716291 | 15.56° C | 79% | 1020.3 hPa | 0 mm | - | - | - |
| 1787715391 | 15.56° C | 79% | 1020.4 hPa | 0 mm | - | - | - |
| 1787714490 | 15.56° C | 77% | 1020.5 hPa | 0 mm | - | - | - |
| 1787713591 | 16.67° C | 76% | 1020.5 hPa | 0 mm | - | - | - |
| 1787712691 | 16.67° C | 73% | 1020.4 hPa | 0 mm | - | - | - |
| 1787711791 | 17.22° C | 72% | 1020.3 hPa | 0 mm | - | - | - |
| 1787710891 | 17.78° C | 67% | 1020.3 hPa | 0 mm | - | - | - |
| 1787709990 | 18.89° C | 69% | 1020.2 hPa | 0 mm | - | - | - |
| 1787709092 | 19.44° C | 65% | 1020.4 hPa | 0 mm | - | - | - |
| 1787708192 | 19.44° C | 66% | 1020.1 hPa | 0 mm | - | - | - |
| 1787707291 | 19.44° C | 68% | 1020.2 hPa | 0 mm | - | - | - |
| 1787706391 | 19.44° C | 69% | 1020.2 hPa | 0 mm | - | - | - |
| 1787705492 | 19.44° C | 72% | 1019.9 hPa | 0 mm | - | - | - |
| 1787704592 | 18.33° C | 77% | 1020 hPa | 0 mm | - | - | - |
| 1787703692 | 17.78° C | 85% | 1020.2 hPa | 0 mm | - | - | - |
| 1787702791 | 15.56° C | 90% | 1020.2 hPa | 0 mm | - | - | - |
| 1787701892 | 15.56° C | 93% | 1020 hPa | 0 mm | - | - | - |
| 1787700990 | 15° C | 95% | 1019.9 hPa | 0 mm | - | - | - |
| 1787700091 | 15° C | 97% | 1019.8 hPa | 0 mm | - | - | - |
| 1787699192 | 14.44° C | 98% | 1019.6 hPa | 0 mm | - | - | - |
| 1787698290 | 14.44° C | 98% | 1019.5 hPa | 0 mm | - | - | - |
| 1787697390 | 13.89° C | 98% | 1019.4 hPa | 0 mm | - | - | - |
| 1787696491 | 13.89° C | 97% | 1019.1 hPa | 0 mm | - | - | - |
* Rain latest hour (hover to see other rain measurements)
** Current wind speed in m/s (hover to see current wind gust speed)